Time;durP1;ratioP1;P1;durP2;ratioP2;P2;SDS_P1;SDS_P2;PMS_P1;PMS_P2;Temp;Humidity;BMP_temperature;BMP_pressure;BME280_temperature;BME280_humidity;BME280_pressure;Samples;Min_cycle;Max_cycle;Signal;HPM_P1;HPM_P2
2021/03/19 00:02:24;;;;;;;13.50;7.57;;;;;;;6.22;60.57;97119.28;5009438;28;20116;-77
2021/03/19 00:04:50;;;;;;;14.30;7.40;;;;;;;6.23;60.59;97126.03;4999755;28;20029;-76
2021/03/19 00:07:16;;;;;;;13.27;7.40;;;;;;;6.10;60.53;97126.97;4997545;28;20438;-76
2021/03/19 00:09:42;;;;;;;15.95;8.45;;;;;;;6.07;61.29;97130.78;4996543;28;20039;-76
2021/03/19 00:12:07;;;;;;;14.85;8.35;;;;;;;6.05;61.41;97125.06;5015388;28;20127;-76
2021/03/19 00:14:33;;;;;;;16.35;8.50;;;;;;;6.07;61.55;97120.44;5008453;28;20491;-76
2021/03/19 00:16:58;;;;;;;17.80;9.05;;;;;;;6.10;61.21;97135.53;5024167;28;20033;-76
2021/03/19 00:19:24;;;;;;;16.13;8.82;;;;;;;6.15;61.21;97133.09;5033225;28;20296;-76
2021/03/19 00:21:49;;;;;;;14.63;8.38;;;;;;;6.09;61.20;97128.00;5029229;28;20028;-76
2021/03/19 00:24:14;;;;;;;14.48;7.95;;;;;;;6.11;61.70;97126.75;5004185;28;20044;-76
2021/03/19 00:26:40;;;;;;;17.83;8.52;;;;;;;6.11;61.00;97121.59;5002119;28;20476;-76
2021/03/19 00:29:06;;;;;;;18.10;8.75;;;;;;;6.14;61.67;97123.75;5016719;28;20061;-76
2021/03/19 00:31:32;;;;;;;14.80;8.32;;;;;;;6.15;61.72;97121.94;5032415;28;20035;-77
2021/03/19 00:33:57;;;;;;;16.80;8.55;;;;;;;6.13;61.24;97114.41;5021148;28;20032;-76
2021/03/19 00:36:22;;;;;;;14.57;8.05;;;;;;;6.13;61.84;97113.63;5001767;28;20565;-77
2021/03/19 00:38:48;;;;;;;14.93;7.70;;;;;;;6.12;61.30;97112.06;4986708;28;20291;-76
2021/03/19 00:41:13;;;;;;;16.08;8.55;;;;;;;6.13;61.16;97103.28;5049741;28;20108;-77
2021/03/19 00:43:39;;;;;;;17.60;8.25;;;;;;;6.08;61.73;97097.97;5005628;28;20017;-77
2021/03/19 00:46:06;;;;;;;16.42;8.23;;;;;;;6.08;61.79;97106.50;5029604;28;20094;-77
2021/03/19 00:48:32;;;;;;;16.08;8.57;;;;;;;6.00;61.89;97107.59;5011289;28;20039;-76
2021/03/19 00:50:57;;;;;;;19.13;8.90;;;;;;;6.08;62.07;97116.84;5014915;28;20025;-77
2021/03/19 00:53:23;;;;;;;15.63;8.18;;;;;;;6.00;62.13;97101.66;5021368;28;20041;-77
2021/03/19 00:55:51;;;;;;;15.15;7.72;;;;;;;6.07;61.65;97110.13;5007303;28;20020;-77
2021/03/19 00:58:19;;;;;;;16.50;8.27;;;;;;;5.90;61.99;97109.09;5013646;28;20098;-77
2021/03/19 01:00:46;;;;;;;14.80;8.35;;;;;;;6.06;62.11;97112.91;5017184;28;20022;-77
2021/03/19 01:03:15;;;;;;;17.10;8.60;;;;;;;5.92;62.13;97122.56;4999120;28;20128;-77
2021/03/19 01:05:44;;;;;;;17.38;8.48;;;;;;;6.06;62.20;97120.66;5028621;28;20064;-77
2021/03/19 01:08:11;;;;;;;16.17;8.57;;;;;;;6.10;61.54;97114.03;5026911;28;20081;-77
2021/03/19 01:10:48;;;;;;;17.98;9.65;;;;;;;5.87;61.21;97109.50;5009226;28;20035;-77
2021/03/19 01:13:18;;;;;;;16.92;9.15;;;;;;;6.10;62.02;97116.63;5027983;28;20041;-77
2021/03/19 01:15:44;;;;;;;15.65;8.43;;;;;;;6.04;61.71;97110.53;5015937;28;20033;-77
2021/03/19 01:18:13;;;;;;;15.23;7.65;;;;;;;6.06;61.12;97112.91;5015547;28;20446;-77
2021/03/19 01:20:40;;;;;;;14.88;8.20;;;;;;;6.09;61.55;97109.91;5012926;28;20037;-77
2021/03/19 01:23:05;;;;;;;18.25;8.15;;;;;;;6.11;61.24;97102.72;5035737;28;20024;-77
2021/03/19 01:25:31;;;;;;;16.23;9.02;;;;;;;6.08;61.31;97106.50;5006362;28;20494;-79
2021/03/19 01:27:56;;;;;;;15.75;7.85;;;;;;;6.11;61.46;97106.06;5012646;28;20093;-79
2021/03/19 01:30:25;;;;;;;15.48;8.23;;;;;;;5.94;61.48;97092.91;5010173;28;20479;-79
2021/03/19 01:32:53;;;;;;;18.85;10.07;;;;;;;6.07;61.96;97104.16;5007789;28;20033;-79
2021/03/19 01:35:21;;;;;;;18.83;9.75;;;;;;;5.96;61.71;97093.53;5022058;28;20074;-79
2021/03/19 01:37:47;;;;;;;18.38;9.23;;;;;;;5.99;61.59;97093.09;4999465;28;20303;-79
2021/03/19 01:40:14;;;;;;;18.20;9.95;;;;;;;5.95;62.12;97097.09;5022178;28;20033;-79
2021/03/19 01:42:48;;;;;;;18.48;8.57;;;;;;;5.81;61.76;97095.66;5012486;28;20033;-79
2021/03/19 01:45:28;;;;;;;16.25;7.57;;;;;;;5.69;62.17;97098.19;5019422;28;20032;-79
2021/03/19 01:48:31;;;;;;;16.80;8.18;;;;;;;5.67;62.15;97095.00;5025481;28;20124;-79
2021/03/19 01:51:35;;;;;;;19.75;8.60;;;;;;;5.62;62.29;97089.69;5032239;28;20447;-79
2021/03/19 01:54:39;;;;;;;18.17;8.73;;;;;;;5.58;61.97;97084.16;5062200;28;20498;-79
2021/03/19 01:57:58;;;;;;;15.18;8.40;;;;;;;5.51;62.52;97080.06;5030261;28;20039;-79
2021/03/19 02:01:01;;;;;;;16.80;8.10;;;;;;;5.64;63.24;97090.28;4941837;28;20035;-79
2021/03/19 02:06:45;;;;;;;19.25;9.40;;;;;;;5.71;62.18;97078.06;5087684;22;20065;-76
2021/03/19 02:09:48;;;;;;;20.48;10.20;;;;;;;5.69;62.33;97084.44;5051117;28;20507;-76
2021/03/19 02:12:54;;;;;;;20.43;9.50;;;;;;;5.61;62.35;97080.38;5032284;28;20039;-76
2021/03/19 02:15:57;;;;;;;20.58;10.57;;;;;;;5.62;62.31;97081.94;5070733;28;20307;-76
2021/03/19 02:18:59;;;;;;;20.23;10.73;;;;;;;5.61;62.46;97073.41;5061748;28;20115;-76
2021/03/19 02:22:02;;;;;;;20.85;10.07;;;;;;;5.59;62.50;97074.63;5033816;28;20037;-76
2021/03/19 02:25:05;;;;;;;17.92;9.15;;;;;;;5.64;62.79;97079.94;5033486;28;20036;-76
2021/03/19 02:28:11;;;;;;;19.87;10.23;;;;;;;5.58;62.40;97076.41;5068571;28;20078;-76
2021/03/19 02:31:13;;;;;;;19.10;9.63;;;;;;;5.75;62.57;97073.28;5051358;28;20469;-76
2021/03/19 02:33:46;;;;;;;18.35;9.07;;;;;;;5.81;61.94;97077.59;5052751;28;20039;-76
2021/03/19 02:36:12;;;;;;;17.75;9.07;;;;;;;5.99;62.48;97079.38;5035346;28;20518;-76
2021/03/19 02:38:38;;;;;;;21.88;11.13;;;;;;;5.87;62.02;97088.84;5034282;28;20036;-76
2021/03/19 02:41:03;;;;;;;20.13;10.55;;;;;;;5.83;62.58;97088.50;5035753;28;20042;-77
2021/03/19 02:43:29;;;;;;;21.52;10.40;;;;;;;5.85;62.21;97088.28;5032627;28;20029;-76
2021/03/19 02:45:54;;;;;;;20.58;10.55;;;;;;;5.79;62.76;97087.31;5023616;28;20033;-77
2021/03/19 02:48:20;;;;;;;22.08;11.07;;;;;;;5.83;63.45;97091.06;5035842;28;20086;-76
2021/03/19 02:50:45;;;;;;;24.83;12.02;;;;;;;5.76;63.30;97087.78;5052523;28;20033;-77
2021/03/19 02:53:23;;;;;;;21.38;10.68;;;;;;;5.62;62.86;97087.91;5035787;28;20039;-77
2021/03/19 02:55:49;;;;;;;22.30;9.88;;;;;;;5.59;62.73;97083.16;5051082;28;20067;-77
2021/03/19 02:58:14;;;;;;;19.40;9.25;;;;;;;5.66;63.05;97088.25;5052623;28;20071;-77
2021/03/19 03:00:40;;;;;;;19.58;10.13;;;;;;;5.69;63.01;97084.44;5045279;28;20037;-77
2021/03/19 03:03:05;;;;;;;19.98;8.80;;;;;;;5.73;63.22;97091.56;5036445;28;20067;-77
2021/03/19 03:05:31;;;;;;;19.75;9.77;;;;;;;5.74;63.00;97084.59;5048918;28;20071;-77
2021/03/19 03:07:57;;;;;;;22.05;9.75;;;;;;;5.68;63.01;97086.25;5035992;28;20025;-77
2021/03/19 03:10:25;;;;;;;23.00;11.10;;;;;;;5.62;63.25;97087.09;5052785;28;20490;-77
2021/03/19 03:12:50;;;;;;;24.60;11.35;;;;;;;5.69;63.13;97087.03;5036054;28;20165;-77
2021/03/19 03:15:18;;;;;;;20.33;9.65;;;;;;;5.66;63.03;97092.66;5026175;28;20120;-77
2021/03/19 03:17:45;;;;;;;19.67;9.57;;;;;;;5.74;62.98;97090.56;5030335;28;20032;-77
2021/03/19 03:20:14;;;;;;;18.98;8.82;;;;;;;5.66;62.57;97083.09;5029089;28;20033;-77
2021/03/19 03:22:41;;;;;;;20.02;9.88;;;;;;;5.74;63.07;97080.22;5046212;28;20418;-77
2021/03/19 03:25:08;;;;;;;17.40;8.90;;;;;;;5.74;63.04;97085.41;5032325;28;20033;-77
2021/03/19 03:27:33;;;;;;;20.17;9.60;;;;;;;5.80;63.08;97083.75;5016221;28;20043;-77
2021/03/19 03:29:58;;;;;;;22.83;10.20;;;;;;;5.71;63.07;97072.13;5016314;28;20021;-77
2021/03/19 03:32:24;;;;;;;24.85;10.60;;;;;;;5.69;62.94;97072.34;5032532;28;20048;-77
2021/03/19 03:34:49;;;;;;;23.48;10.45;;;;;;;5.72;63.14;97076.28;4999726;28;20071;-77
2021/03/19 03:37:14;;;;;;;22.60;10.55;;;;;;;5.63;63.33;97080.94;5030041;28;20107;-77
2021/03/19 03:39:40;;;;;;;20.80;9.60;;;;;;;5.67;63.37;97079.50;4997927;28;20033;-77
2021/03/19 03:42:05;;;;;;;20.63;8.85;;;;;;;5.59;63.19;97080.59;5014288;28;20091;-76
2021/03/19 03:44:32;;;;;;;25.52;9.70;;;;;;;5.54;64.01;97087.41;5032069;28;20035;-77
2021/03/19 03:46:57;;;;;;;21.48;9.93;;;;;;;5.49;64.08;97080.28;5015792;28;20553;-76
2021/03/19 03:49:24;;;;;;;23.60;9.80;;;;;;;5.59;63.04;97082.38;5015653;28;20025;-77
2021/03/19 03:51:50;;;;;;;20.95;10.07;;;;;;;5.70;63.67;97086.81;5032058;28;20429;-77
2021/03/19 03:54:16;;;;;;;20.52;9.43;;;;;;;5.73;63.00;97083.03;5031745;28;20056;-77
2021/03/19 03:56:41;;;;;;;20.60;10.32;;;;;;;5.69;63.16;97082.66;5049968;28;20421;-77
2021/03/19 03:59:06;;;;;;;22.85;9.43;;;;;;;5.72;63.00;97089.19;5018891;28;20040;-77
2021/03/19 04:01:33;;;;;;;22.00;9.30;;;;;;;5.69;63.28;97081.88;5035536;28;20082;-77
2021/03/19 04:03:59;;;;;;;22.35;8.90;;;;;;;5.70;63.23;97086.81;4998320;28;20068;-77
2021/03/19 04:06:24;;;;;;;19.70;9.40;;;;;;;5.74;62.89;97089.75;5004411;28;20057;-77
2021/03/19 04:08:49;;;;;;;18.67;8.80;;;;;;;5.74;63.15;97088.00;5033442;28;20086;-77
2021/03/19 04:11:18;;;;;;;22.08;10.10;;;;;;;5.56;62.87;97098.31;5032342;28;20095;-77
2021/03/19 04:13:44;;;;;;;21.33;9.20;;;;;;;5.69;62.72;97097.38;5001803;28;20590;-77
2021/03/19 04:16:10;;;;;;;19.88;9.35;;;;;;;5.68;63.00;97099.16;5018716;28;20032;-77
2021/03/19 04:18:36;;;;;;;20.60;9.35;;;;;;;5.66;62.95;97098.59;5035334;28;20451;-76
2021/03/19 04:21:08;;;;;;;22.52;10.25;;;;;;;5.52;62.79;97104.88;5035124;28;20049;-77
2021/03/19 04:23:35;;;;;;;18.85;9.18;;;;;;;5.49;63.24;97105.31;5019021;28;20102;-77
2021/03/19 04:26:00;;;;;;;19.85;9.35;;;;;;;5.56;63.23;97108.63;5034669;28;20055;-77
2021/03/19 04:28:37;;;;;;;19.13;7.65;;;;;;;5.01;64.29;97097.16;5018673;28;20033;-77
2021/03/19 04:31:05;;;;;;;19.95;8.77;;;;;;;5.24;64.11;97099.19;5015305;28;20057;-77
2021/03/19 04:33:32;;;;;;;19.92;9.00;;;;;;;5.42;63.70;97101.00;5002253;28;20041;-77
2021/03/19 04:36:13;;;;;;;21.45;9.65;;;;;;;5.28;63.47;97103.91;5001705;28;20060;-77
2021/03/19 04:38:39;;;;;;;19.23;9.70;;;;;;;5.41;64.30;97102.00;5011259;28;20033;-77
2021/03/19 04:41:05;;;;;;;21.20;9.20;;;;;;;5.55;63.55;97109.63;5018343;28;20545;-77
2021/03/19 04:43:32;;;;;;;20.55;9.05;;;;;;;5.39;63.80;97111.75;5034855;28;20060;-77
2021/03/19 04:45:57;;;;;;;19.08;8.95;;;;;;;5.46;63.82;97109.09;5034641;28;20717;-77
2021/03/19 04:48:22;;;;;;;21.65;9.57;;;;;;;5.41;63.71;97106.38;5052725;28;20107;-77
2021/03/19 04:50:48;;;;;;;28.98;10.63;;;;;;;5.20;65.29;97125.63;5034521;28;20041;-77
2021/03/19 04:53:13;;;;;;;39.10;11.57;;;;;;;5.07;64.97;97121.34;5052596;28;20068;-77
2021/03/19 04:55:38;;;;;;;36.53;12.68;;;;;;;5.12;65.09;97123.28;5034107;28;20033;-77
2021/03/19 04:58:04;;;;;;;29.45;10.50;;;;;;;5.08;64.93;97122.94;5036125;28;20025;-77
2021/03/19 05:00:29;;;;;;;24.88;10.48;;;;;;;5.14;65.58;97127.25;5001732;28;20056;-77
2021/03/19 05:02:57;;;;;;;36.47;11.88;;;;;;;4.76;66.66;97132.47;5014704;28;20034;-77
2021/03/19 05:05:22;;;;;;;35.67;11.93;;;;;;;4.81;66.78;97142.94;5034152;28;20041;-76
2021/03/19 05:07:57;;;;;;;33.45;12.10;;;;;;;4.43;67.28;97143.75;5035180;28;20082;-76
2021/03/19 05:10:26;;;;;;;32.38;12.25;;;;;;;4.64;66.79;97143.47;5016935;28;20049;-77
2021/03/19 05:12:52;;;;;;;28.13;12.55;;;;;;;4.92;66.57;97144.88;5032827;28;20060;-76
2021/03/19 05:15:18;;;;;;;26.92;10.75;;;;;;;4.88;65.82;97148.84;5034213;28;20025;-77
2021/03/19 05:17:44;;;;;;;25.75;10.73;;;;;;;4.82;66.94;97152.28;5001963;28;20120;-76
2021/03/19 05:20:12;;;;;;;24.38;11.15;;;;;;;4.83;66.73;97154.66;5014435;28;20049;-77
2021/03/19 05:22:38;;;;;;;21.40;8.80;;;;;;;5.06;65.37;97159.25;5005579;28;20060;-77
2021/03/19 05:25:06;;;;;;;23.17;10.18;;;;;;;4.90;65.87;97167.53;5051666;28;20159;-76
2021/03/19 05:27:31;;;;;;;24.90;10.25;;;;;;;4.76;66.55;97163.41;5001168;28;20021;-76
2021/03/19 05:29:57;;;;;;;24.80;9.07;;;;;;;4.49;67.58;97169.50;5051903;28;20341;-77
2021/03/19 05:32:23;;;;;;;20.65;9.15;;;;;;;4.49;67.52;97166.16;5034369;28;20074;-77
2021/03/19 05:34:49;;;;;;;18.73;8.75;;;;;;;4.43;67.85;97172.13;5000723;28;20043;-77
2021/03/19 05:37:14;;;;;;;18.17;8.18;;;;;;;4.40;67.81;97175.09;5017027;28;20033;-77
2021/03/19 05:39:40;;;;;;;18.00;8.73;;;;;;;4.73;67.00;97174.16;5033600;28;20108;-77
2021/03/19 05:42:16;;;;;;;15.52;7.70;;;;;;;4.51;66.57;97187.34;5017485;28;20039;-77
2021/03/19 05:44:44;;;;;;;15.75;6.55;;;;;;;4.29;67.54;97182.47;5037256;28;20032;-77
2021/03/19 05:47:10;;;;;;;15.32;7.65;;;;;;;4.29;67.57;97173.94;5005603;28;20494;-77
2021/03/19 05:49:35;;;;;;;15.90;7.22;;;;;;;4.61;66.67;97181.72;5000628;28;20029;-77
2021/03/19 05:52:10;;;;;;;14.27;6.95;;;;;;;4.25;67.56;97183.06;5033543;28;20479;-77
2021/03/19 05:54:43;;;;;;;14.85;7.10;;;;;;;4.55;66.67;97175.63;5033988;28;20028;-77
2021/03/19 05:57:24;;;;;;;15.93;7.25;;;;;;;4.11;68.06;97177.16;5034446;28;20116;-77
2021/03/19 05:59:52;;;;;;;15.43;6.88;;;;;;;4.25;68.16;97190.78;5015267;28;20090;-78
2021/03/19 06:02:23;;;;;;;15.45;6.15;;;;;;;3.50;70.70;97198.84;5018941;28;20028;-77
2021/03/19 06:05:07;;;;;;;16.98;8.10;;;;;;;3.63;70.22;97203.97;5014287;28;20041;-77
2021/03/19 06:08:02;;;;;;;40.60;9.68;;;;;;;3.26;71.96;97203.59;5030515;28;20042;-77
2021/03/19 06:10:39;;;;;;;41.58;9.25;;;;;;;3.15;71.80;97199.00;5017971;28;20063;-77
2021/03/19 06:13:21;;;;;;;48.45;10.57;;;;;;;3.09;72.73;97213.47;5030285;28;20037;-78
2021/03/19 06:15:52;;;;;;;49.13;10.98;;;;;;;3.49;71.69;97218.63;5015026;28;20045;-77
2021/03/19 06:18:39;;;;;;;44.33;12.43;;;;;;;2.95;72.83;97222.16;5019352;28;20037;-79
2021/03/19 06:21:27;;;;;;;43.85;11.18;;;;;;;3.46;71.81;97224.19;5034794;28;20072;-77
2021/03/19 06:24:23;;;;;;;29.80;10.98;;;;;;;3.17;71.78;97226.16;5023970;28;20069;-78
2021/03/19 06:26:51;;;;;;;29.15;11.13;;;;;;;3.80;70.34;97229.34;5035824;28;20033;-77
2021/03/19 06:29:26;;;;;;;27.02;10.90;;;;;;;3.22;71.41;97227.31;5019925;28;20040;-79
2021/03/19 06:32:21;;;;;;;28.10;11.93;;;;;;;3.00;72.25;97232.66;5034869;28;20032;-78
2021/03/19 06:35:05;;;;;;;33.35;12.88;;;;;;;3.26;71.58;97238.84;5050092;28;20102;-77
2021/03/19 06:37:33;;;;;;;43.03;17.30;;;;;;;3.41;70.89;97239.44;5053965;28;20044;-77
2021/03/19 06:40:21;;;;;;;54.42;26.23;;;;;;;3.22;71.55;97232.47;5018358;28;20044;-78
2021/03/19 06:42:46;;;;;;;38.65;16.08;;;;;;;3.73;70.13;97230.13;5033557;28;20044;-78
2021/03/19 06:45:25;;;;;;;36.08;15.45;;;;;;;3.40;70.65;97244.78;5048489;28;20036;-79
2021/03/19 06:47:54;;;;;;;37.50;16.40;;;;;;;3.48;70.48;97232.50;5052891;28;20084;-78
2021/03/19 06:50:23;;;;;;;42.05;17.48;;;;;;;3.24;71.00;97235.63;5017722;28;20024;-78
2021/03/19 06:52:50;;;;;;;38.80;16.35;;;;;;;3.53;70.76;97244.78;5029945;28;20029;-78
2021/03/19 06:55:36;;;;;;;44.20;18.90;;;;;;;3.59;69.73;97249.16;4962254;28;20152;-78
2021/03/19 06:58:02;;;;;;;41.92;18.05;;;;;;;3.84;69.84;97241.63;5018157;28;20112;-77
2021/03/19 07:00:41;;;;;;;46.60;18.35;;;;;;;3.73;69.11;97244.78;5029907;28;20085;-77
2021/03/19 07:03:07;;;;;;;41.97;16.73;;;;;;;4.12;68.85;97243.16;5001102;28;20466;-78
2021/03/19 07:06:20;;;;;;;46.72;19.55;;;;;;;3.53;69.11;97248.16;5049471;28;20116;-79
2021/03/19 07:08:52;;;;;;;52.10;19.33;;;;;;;3.93;68.92;97255.09;5011056;28;20499;-77
2021/03/19 07:11:59;;;;;;;49.58;20.35;;;;;;;2.93;71.80;97257.53;5027638;28;20037;-80
2021/03/19 07:15:06;;;;;;;43.95;18.92;;;;;;;2.90;71.51;97242.50;5043449;28;20059;-78
2021/03/19 07:17:41;;;;;;;52.15;20.40;;;;;;;3.77;69.98;97255.47;5034330;28;20044;-77
2021/03/19 07:20:34;;;;;;;49.35;18.90;;;;;;;3.05;70.74;97263.72;5031006;28;20559;-79
2021/03/19 07:23:11;;;;;;;49.58;19.48;;;;;;;3.13;71.10;97260.16;5038405;28;20491;-77
2021/03/19 07:26:01;;;;;;;48.33;21.00;;;;;;;2.90;71.95;97268.22;5013489;28;20032;-79
2021/03/19 07:28:29;;;;;;;50.00;19.83;;;;;;;3.60;70.67;97283.41;5030503;28;20488;-77
2021/03/19 07:31:13;;;;;;;42.55;19.58;;;;;;;3.00;71.55;97272.00;5013418;28;20040;-79
2021/03/19 07:33:41;;;;;;;49.38;20.23;;;;;;;3.39;71.02;97277.44;5030353;28;20548;-79
2021/03/19 07:36:34;;;;;;;47.97;19.65;;;;;;;3.35;70.57;97281.41;5025366;28;20279;-78
2021/03/19 07:39:10;;;;;;;43.28;17.83;;;;;;;3.11;71.21;97283.50;5050437;28;20510;-77
2021/03/19 07:41:53;;;;;;;44.72;17.60;;;;;;;2.86;71.79;97297.84;5043420;28;20052;-79
2021/03/19 07:44:37;;;;;;;46.08;18.83;;;;;;;3.17;71.13;97299.94;5004885;28;20373;-78
2021/03/19 07:47:24;;;;;;;41.85;17.02;;;;;;;2.70;72.05;97297.19;5016901;28;20608;-79
2021/03/19 07:50:22;;;;;;;46.67;17.45;;;;;;;2.98;71.40;97299.69;5023264;28;20033;-79
2021/03/19 07:53:06;;;;;;;41.95;18.13;;;;;;;3.54;70.45;97303.00;5016918;28;20338;-79
2021/03/19 07:55:53;;;;;;;40.88;17.88;;;;;;;3.33;70.40;97309.91;5044187;28;20502;-79
2021/03/19 07:58:44;;;;;;;51.70;19.40;;;;;;;3.03;71.25;97313.75;5015844;28;20467;-78
2021/03/19 08:01:44;;;;;;;39.28;17.17;;;;;;;3.11;70.74;97309.22;5015166;28;20127;-78
2021/03/19 08:04:36;;;;;;;41.25;17.17;;;;;;;3.18;70.76;97320.34;4947640;28;20056;-79
2021/03/19 08:07:16;;;;;;;38.60;15.68;;;;;;;2.90;70.75;97317.88;5032606;28;20544;-81
2021/03/19 08:09:52;;;;;;;42.08;16.20;;;;;;;3.38;69.11;97322.19;5032381;28;20052;-78
2021/03/19 08:12:25;;;;;;;34.58;15.50;;;;;;;3.86;68.99;97332.34;5013206;28;20132;-78
2021/03/19 08:15:05;;;;;;;40.10;16.67;;;;;;;3.89;67.93;97334.56;5025999;28;20582;-79
2021/03/19 08:17:41;;;;;;;37.08;16.55;;;;;;;3.78;67.67;97331.75;5049709;28;20383;-78
2021/03/19 08:20:25;;;;;;;30.60;14.23;;;;;;;2.67;71.07;97338.72;5015851;28;20087;-78
2021/03/19 08:23:21;;;;;;;32.72;14.73;;;;;;;3.32;69.44;97340.97;5032163;28;20678;-79
2021/03/19 08:25:50;;;;;;;32.10;14.10;;;;;;;3.43;68.81;97345.56;5015053;28;20662;-78
2021/03/19 08:28:39;;;;;;;28.67;13.55;;;;;;;3.12;69.02;97357.13;5013678;28;20060;-79
2021/03/19 08:31:23;;;;;;;29.48;12.68;;;;;;;3.67;67.91;97351.16;5027172;28;20033;-78
2021/03/19 08:34:04;;;;;;;29.20;12.90;;;;;;;3.31;68.55;97362.56;5045112;28;20034;-78
2021/03/19 08:36:39;;;;;;;27.83;11.90;;;;;;;2.87;69.45;97368.88;5011545;28;20554;-79
2021/03/19 08:39:44;;;;;;;26.48;12.63;;;;;;;3.42;68.10;97364.56;5028805;28;20048;-78
2021/03/19 08:42:17;;;;;;;29.73;11.68;;;;;;;3.49;67.32;97367.16;5013277;28;20115;-77
2021/03/19 08:44:43;;;;;;;28.65;12.05;;;;;;;3.87;67.48;97370.03;5028914;28;20021;-77
2021/03/19 08:47:40;;;;;;;25.35;11.45;;;;;;;3.92;65.78;97375.38;5001166;28;20043;-78
2021/03/19 08:50:25;;;;;;;25.98;10.52;;;;;;;2.99;67.90;97373.28;5010714;28;20029;-77
2021/03/19 08:53:13;;;;;;;21.50;10.68;;;;;;;3.46;67.24;97383.78;5033566;28;20630;-77
2021/03/19 08:56:05;;;;;;;22.58;10.38;;;;;;;3.32;67.11;97385.50;5003964;28;20115;-80
2021/03/19 08:58:30;;;;;;;23.90;12.35;;;;;;;3.35;68.01;97377.41;4986094;28;20430;-77
2021/03/19 09:01:01;;;;;;;22.92;11.75;;;;;;;3.16;67.77;97391.78;5031753;28;20056;-78
2021/03/19 09:03:41;;;;;;;27.45;11.95;;;;;;;3.46;67.20;97390.69;5030285;28;20499;-77
2021/03/19 09:06:14;;;;;;;26.10;12.48;;;;;;;3.58;66.91;97396.88;5047000;28;20056;-78
2021/03/19 09:08:43;;;;;;;26.05;11.98;;;;;;;3.72;66.94;97405.44;5031299;28;20041;-78
2021/03/19 09:11:21;;;;;;;27.92;11.45;;;;;;;4.04;65.83;97385.88;5029056;28;20125;-78
2021/03/19 09:14:04;;;;;;;29.13;14.95;;;;;;;3.29;67.16;97400.53;5026376;28;20037;-79
2021/03/19 09:16:43;;;;;;;29.77;13.63;;;;;;;3.71;66.76;97407.22;5048697;28;20102;-79
2021/03/19 09:19:40;;;;;;;21.95;10.63;;;;;;;3.72;66.94;97403.66;5049460;28;20020;-78
2021/03/19 09:22:21;;;;;;;23.05;10.15;;;;;;;3.49;66.50;97398.03;5049165;28;20423;-78
2021/03/19 09:25:11;;;;;;;26.63;11.57;;;;;;;3.83;66.02;97399.72;5010086;28;20656;-77
2021/03/19 09:28:06;;;;;;;21.90;11.00;;;;;;;3.54;66.34;97411.91;5046081;28;20584;-78
2021/03/19 09:30:55;;;;;;;25.08;12.00;;;;;;;3.85;65.01;97413.19;5028955;28;20376;-79
2021/03/19 09:33:45;;;;;;;23.85;11.65;;;;;;;3.85;64.93;97426.06;5013248;28;20097;-78
2021/03/19 09:36:48;;;;;;;22.42;10.45;;;;;;;3.70;65.02;97425.44;5027328;28;20067;-78
2021/03/19 09:39:48;;;;;;;20.70;9.48;;;;;;;4.13;65.60;97425.16;5047206;28;20435;-77
2021/03/19 09:42:22;;;;;;;24.52;10.57;;;;;;;4.39;64.66;97433.88;5044742;28;20044;-78
2021/03/19 09:44:58;;;;;;;23.03;9.90;;;;;;;4.50;63.73;97436.63;5047377;28;20032;-78
2021/03/19 09:47:24;;;;;;;;;;;;;;;4.09;64.92;97441.97;5028231;28;20310;-77
2021/03/19 09:50:16;;;;;;;24.75;9.73;;;;;;;4.03;64.97;97440.97;5008792;28;19920;-77
2021/03/19 09:53:07;;;;;;;24.15;11.25;;;;;;;3.58;65.82;97442.44;5046322;28;20064;-78
2021/03/19 09:55:42;;;;;;;21.33;10.82;;;;;;;3.85;65.23;97431.22;4996554;28;20057;-77
2021/03/19 09:58:22;;;;;;;24.58;10.32;;;;;;;4.28;64.42;97448.13;5014275;28;20051;-77
2021/03/19 10:01:02;;;;;;;21.67;10.27;;;;;;;3.90;65.27;97434.00;5005362;28;20826;-77
2021/03/19 10:03:41;;;;;;;19.30;9.63;;;;;;;4.11;65.29;97437.41;5015098;28;20037;-77
2021/03/19 10:06:25;;;;;;;22.08;9.38;;;;;;;4.16;64.71;97432.47;5029780;28;20028;-77
2021/03/19 10:09:01;;;;;;;22.55;9.73;;;;;;;5.02;63.12;97433.41;5009446;28;20056;-77
2021/03/19 10:11:27;;;;;;;22.80;10.55;;;;;;;5.54;61.63;97425.72;5011936;28;20429;-77
2021/03/19 10:13:52;;;;;;;19.38;8.20;;;;;;;5.27;62.20;97425.81;5026413;28;20041;-77
2021/03/19 10:16:23;;;;;;;18.40;9.20;;;;;;;4.13;63.89;97435.44;5028670;28;20544;-77
2021/03/19 10:18:49;;;;;;;19.17;9.18;;;;;;;4.99;62.70;97424.28;5013465;28;20029;-78
2021/03/19 10:21:21;;;;;;;22.42;9.00;;;;;;;4.80;63.78;97435.47;5024705;28;20028;-78
2021/03/19 10:24:02;;;;;;;21.50;10.93;;;;;;;4.80;62.99;97433.66;5027883;28;20037;-77
2021/03/19 10:26:51;;;;;;;18.92;9.25;;;;;;;5.31;63.06;97437.31;5009006;28;20084;-77
2021/03/19 10:29:21;;;;;;;20.83;8.90;;;;;;;6.03;62.12;97444.16;5031330;28;20047;-77
2021/03/19 10:31:54;;;;;;;14.45;7.78;;;;;;;5.95;60.28;97448.56;5011806;28;20043;-78
2021/03/19 10:34:28;;;;;;;18.05;8.52;;;;;;;6.34;61.04;97446.75;5040894;28;20032;-77
2021/03/19 10:37:02;;;;;;;18.80;9.23;;;;;;;6.46;60.36;97441.69;5026958;28;20028;-77
2021/03/19 10:39:58;;;;;;;17.88;8.68;;;;;;;7.17;60.42;97447.44;5029091;28;20543;-77
2021/03/19 10:42:45;;;;;;;15.63;7.85;;;;;;;7.30;59.13;97449.09;5020578;28;20575;-77
2021/03/19 10:45:25;;;;;;;14.80;8.05;;;;;;;7.02;58.94;97444.38;5046669;28;20033;-77
2021/03/19 10:48:35;;;;;;;13.63;7.93;;;;;;;6.94;59.01;97441.09;5048806;28;20036;-77
2021/03/19 10:51:07;;;;;;;13.30;6.75;;;;;;;7.15;57.54;97438.31;4982236;28;20058;-78
2021/03/19 10:53:39;;;;;;;14.00;7.20;;;;;;;7.81;56.59;97447.88;4968166;28;20054;-77
2021/03/19 10:56:05;;;;;;;12.23;7.03;;;;;;;7.81;57.11;97444.50;4978022;28;20061;-77
2021/03/19 10:58:30;;;;;;;10.60;6.30;;;;;;;8.15;54.69;97453.41;4965787;28;20054;-77
2021/03/19 11:00:57;;;;;;;11.32;5.85;;;;;;;7.93;54.31;97463.47;4966599;28;20413;-77
2021/03/19 11:03:33;;;;;;;11.68;6.43;;;;;;;7.27;53.91;97463.25;4967781;28;20088;-77
2021/03/19 11:06:01;;;;;;;11.40;6.40;;;;;;;7.29;55.54;97463.81;4965767;28;20473;-77
2021/03/19 11:08:27;;;;;;;15.77;8.20;;;;;;;7.06;55.85;97463.66;4936147;28;20537;-76
2021/03/19 11:10:54;;;;;;;13.65;6.60;;;;;;;6.50;56.15;97460.19;4960024;28;20037;-79
2021/03/19 11:13:26;;;;;;;14.45;7.38;;;;;;;6.21;57.26;97472.69;4969752;28;20433;-77
2021/03/19 11:15:58;;;;;;;13.07;6.97;;;;;;;6.91;57.53;97469.97;4962535;28;20659;-77
2021/03/19 11:18:39;;;;;;;11.23;6.70;;;;;;;7.15;54.94;97466.78;4952882;28;20042;-77
2021/03/19 11:21:08;;;;;;;15.55;7.05;;;;;;;6.55;55.42;97478.44;4986639;28;20045;-77
2021/03/19 11:23:36;;;;;;;12.38;6.65;;;;;;;6.73;54.98;97481.09;4969107;28;20038;-76
2021/03/19 11:26:17;;;;;;;14.50;6.95;;;;;;;5.59;58.13;97475.75;5030168;28;20073;-77
2021/03/19 11:28:44;;;;;;;21.10;10.43;;;;;;;6.13;58.33;97491.03;5027877;28;20076;-77
2021/03/19 11:31:27;;;;;;;25.10;12.52;;;;;;;6.03;58.13;97499.22;5007626;28;20013;-77
2021/03/19 11:34:12;;;;;;;18.63;9.43;;;;;;;5.42;57.82;97490.91;5010955;28;20423;-77
2021/03/19 11:37:16;;;;;;;15.27;7.53;;;;;;;5.54;58.26;97493.66;5025368;28;20555;-77
2021/03/19 11:39:54;;;;;;;13.30;6.30;;;;;;;6.48;57.18;97488.84;5011259;28;20047;-76
2021/03/19 11:42:29;;;;;;;12.50;6.70;;;;;;;6.26;56.16;97485.78;5040275;28;20039;-78
2021/03/19 11:44:58;;;;;;;20.23;10.15;;;;;;;6.64;56.33;97492.69;5005178;28;20439;-76
2021/03/19 11:47:27;;;;;;;15.25;8.10;;;;;;;6.73;56.63;97482.88;5003910;28;20041;-77
2021/03/19 11:50:26;;;;;;;16.33;8.10;;;;;;;6.06;58.10;97491.06;5029525;28;20021;-77
2021/03/19 11:53:10;;;;;;;14.77;7.00;;;;;;;5.57;58.41;97492.44;5021693;28;20334;-77
2021/03/19 11:55:35;;;;;;;19.33;9.60;;;;;;;6.17;57.20;97498.19;5029590;28;20029;-77
2021/03/19 11:58:02;;;;;;;11.73;6.97;;;;;;;6.03;57.96;97493.28;5035089;28;20058;-77
2021/03/19 12:00:37;;;;;;;12.80;6.78;;;;;;;5.62;56.75;97506.34;4994803;28;20455;-77
2021/03/19 12:03:09;;;;;;;18.65;9.77;;;;;;;6.21;56.08;97508.13;5027472;28;20056;-77
2021/03/19 12:05:39;;;;;;;11.95;5.50;;;;;;;5.80;56.63;97505.66;5010474;28;20039;-77
2021/03/19 12:08:05;;;;;;;11.10;6.18;;;;;;;5.26;57.28;97504.28;4992320;28;20045;-77
2021/03/19 12:10:32;;;;;;;13.98;6.70;;;;;;;5.57;58.30;97505.34;5012564;28;20028;-77